Time;durP1;ratioP1;P1;durP2;ratioP2;P2;SDS_P1;SDS_P2;PMS_P1;PMS_P2;Temp;Humidity;BMP_temperature;BMP_pressure;BME280_temperature;BME280_humidity;BME280_pressure;Samples;Min_cycle;Max_cycle;Signal;HPM_P1;HPM_P2
2022/03/22 00:01:48;;;;;;;;;;;;;;;;;;5109731;28;19946;-78
2022/03/22 00:04:14;;;;;;;;;;;;;;;;;;5111473;28;20340;-78
2022/03/22 00:06:39;;;;;;;;;;;;;;;;;;5134742;28;19915;-78
2022/03/22 00:09:05;;;;;;;;;;;;;;;;;;5134913;28;19939;-79
2022/03/22 00:11:30;;;;;;;;;;;;;;;;;;5134363;28;19916;-78
2022/03/22 00:13:56;;;;;;;;;;;;;;;;;;5133222;27;19923;-78
2022/03/22 00:16:21;;;;;;;;;;;;;;;;;;5132876;28;19915;-78
2022/03/22 00:18:47;;;;;;;;;;;;;;;;;;5130429;28;19948;-78
2022/03/22 00:21:12;;;;;;;;;;;;;;;;;;5131493;28;19916;-78
2022/03/22 00:23:37;;;;;;;;;;;;;;;;;;5129833;28;19911;-78
2022/03/22 00:26:03;;;;;;;;;;;;;;;;;;5130903;28;20322;-78
2022/03/22 00:28:30;;;;;;;;;;;;;;;;;;5129972;28;19923;-78
2022/03/22 00:30:56;;;;;;;;;;;;;;;;;;5130087;28;19941;-78
2022/03/22 00:33:21;;;;;;;;;;;;;;;;;;5129090;28;19922;-78
2022/03/22 00:35:49;;;;;;;;;;;;;;;;;;5128944;27;20364;-78
2022/03/22 00:38:20;;;;;;;;;;;;;;;;;;5128526;28;20026;-78
2022/03/22 00:40:46;;;;;;;;;;;;;;;;;;5126528;28;19915;-78
2022/03/22 00:43:12;;;;;;;;;;;;;;;;;;5128284;27;19923;-78
2022/03/22 00:45:38;;;;;;;;;;;;;;;;;;5126434;28;20121;-78
2022/03/22 00:48:05;;;;;;;;;;;;;;;;;;5127831;28;19977;-78
2022/03/22 00:50:33;;;;;;;;;;;;;;;;;;5126864;28;19915;-78
2022/03/22 00:52:59;;;;;;;;;;;;;;;;;;5126798;28;19916;-78
2022/03/22 00:55:27;;;;;;;;;;;;;;;;;;5127442;28;19919;-78
2022/03/22 00:57:52;;;;;;;;;;;;;;;;;;5125976;28;19926;-79
2022/03/22 01:00:18;;;;;;;;;;;;;;;;;;5124818;28;20653;-78
2022/03/22 01:02:48;;;;;;;;;;;;;;;;;;5127761;28;19923;-78
2022/03/22 01:05:15;;;;;;;;;;;;;;;;;;5126390;28;19916;-78
2022/03/22 01:07:41;;;;;;;;;;;;;;;;;;5107605;28;19974;-78
2022/03/22 01:10:09;;;;;;;;;;;;;;;;;;5127125;28;20007;-78
2022/03/22 01:12:35;;;;;;;;;;;;;;;;;;5126746;28;19916;-78
2022/03/22 01:15:11;;;;;;;;;;;;;;;;;;5125122;28;19922;-78
2022/03/22 01:17:39;;;;;;;;;;;;;;;;;;5125564;28;19938;-78
2022/03/22 01:20:06;;;;;;;;;;;;;;;;;;5126428;28;19915;-78
2022/03/22 01:22:32;;;;;;;;;;;;;;;;;;5124444;28;19916;-78
2022/03/22 01:24:57;;;;;;;;;;;;;;;;;;5125775;28;19938;-78
2022/03/22 01:27:23;;;;;;;;;;;;;;;;;;5125954;28;19931;-78
2022/03/22 01:29:49;;;;;;;;;;;;;;;;;;5126246;28;19915;-78
2022/03/22 01:32:14;;;;;;;;;;;;;;;;;;5125970;28;19916;-78
2022/03/22 01:34:39;;;;;;;;;;;;;;;;;;5126714;28;19916;-78
2022/03/22 01:37:05;;;;;;;;;;;;;;;;;;5135453;28;19919;-79
2022/03/22 01:39:30;;;;;;;;;;;;;;;;;;5138453;28;19955;-79
2022/03/22 01:41:57;;;;;;;;;;;;;;;;;;5137214;28;19941;-78
2022/03/22 01:44:23;;;;;;;;;;;;;;;;;;5137010;28;19915;-78
2022/03/22 01:46:50;;;;;;;;;;;;;;;;;;5135791;27;19939;-78
2022/03/22 01:49:15;;;;;;;;;;;;;;;;;;5134922;28;19915;-78
2022/03/22 01:51:41;;;;;;;;;;;;;;;;;;5134508;28;19935;-78
2022/03/22 01:54:06;;;;;;;;;;;;;;;;;;5135561;28;20288;-78
2022/03/22 01:56:32;;;;;;;;;;;;;;;;;;5134532;28;19915;-78
2022/03/22 01:58:58;;;;;;;;;;;;;;;;;;5133624;28;19919;-78
2022/03/22 02:06:52;;;;;;;;;;;;;;;;;;5132704;28;19919;-78
2022/03/22 02:09:18;;;;;;;;;;;;;;;;;;5132635;27;19982;-78
2022/03/22 02:11:43;;;;;;;;;;;;;;;;;;5130416;28;19923;-78
2022/03/22 02:14:09;;;;;;;;;;;;;;;;;;5132262;28;19920;-79
2022/03/22 02:16:34;;;;;;;;;;;;;;;;;;5131491;27;20324;-78
2022/03/22 02:19:00;;;;;;;;;;;;;;;;;;5131433;28;19920;-78
2022/03/22 02:21:27;;;;;;;;;;;;;;;;;;5131962;28;19942;-78
2022/03/22 02:23:56;;;;;;;;;;;;;;;;;;5131272;28;19915;-78
2022/03/22 02:26:22;;;;;;;;;;;;;;;;;;5132940;28;19923;-79
2022/03/22 02:28:53;;;;;;;;;;;;;;;;;;5138303;28;19923;-78
2022/03/22 02:31:18;;;;;;;;;;;;;;;;;;5138054;28;19915;-78
2022/03/22 02:33:43;;;;;;;;;;;;;;;;;;5138412;28;19973;-79
2022/03/22 02:36:09;;;;;;;;;;;;;;;;;;5137205;28;19918;-79
2022/03/22 02:38:34;;;;;;;;;;;;;;;;;;5135508;28;19920;-79
2022/03/22 02:41:01;;;;;;;;;;;;;;;;;;5135972;27;19922;-79
2022/03/22 02:43:26;;;;;;;;;;;;;;;;;;5135910;27;19916;-78
2022/03/22 02:45:51;;;;;;;;;;;;;;;;;;5134675;27;19966;-78
2022/03/22 02:48:18;;;;;;;;;;;;;;;;;;5135361;28;19915;-78
2022/03/22 02:50:43;;;;;;;;;;;;;;;;;;5133980;28;19916;-78
2022/03/22 02:53:09;;;;;;;;;;;;;;;;;;5134453;28;19969;-78
2022/03/22 02:55:35;;;;;;;;;;;;;;;;;;5134771;28;20339;-79
2022/03/22 02:58:00;;;;;;;;;;;;;;;;;;5133875;28;19991;-78
2022/03/22 03:00:26;;;;;;;;;;;;;;;;;;5134972;28;19920;-78
2022/03/22 03:02:52;;;;;;;;;;;;;;;;;;5133659;28;19916;-78
2022/03/22 03:05:19;;;;;;;;;;;;;;;;;;5133590;27;19916;-78
2022/03/22 03:07:44;;;;;;;;;;;;;;;;;;5135629;28;19937;-78
2022/03/22 03:10:10;;;;;;;;;;;;;;;;;;5136805;28;19947;-80
2022/03/22 03:12:35;;;;;;;;;;;;;;;;;;5136310;28;19986;-79
2022/03/22 03:15:02;;;;;;;;;;;;;;;;;;5139662;27;19916;-79
2022/03/22 03:17:27;;;;;;;;;;;;;;;;;;5156000;27;19916;-78
2022/03/22 03:19:52;;;;;;;;;;;;;;;;;;5155333;27;19923;-78
2022/03/22 03:22:19;;;;;;;;;;;;;;;;;;5154231;27;19915;-78
2022/03/22 03:24:44;;;;;;;;;;;;;;;;;;5153300;27;19922;-78
2022/03/22 03:27:09;;;;;;;;;;;;;;;;;;5138900;27;19927;-78
2022/03/22 03:29:35;;;;;;;;;;;;;;;;;;5133024;28;19975;-78
2022/03/22 03:32:00;;;;;;;;;;;;;;;;;;5131178;27;19923;-78
2022/03/22 03:34:25;;;;;;;;;;;;;;;;;;5131525;28;19983;-78
2022/03/22 03:36:51;;;;;;;;;;;;;;;;;;5130545;28;19922;-78
2022/03/22 03:39:17;;;;;;;;;;;;;;;;;;5131667;28;19920;-78
2022/03/22 03:41:56;;;;;;;;;;;;;;;;;;5130662;28;20434;-78
2022/03/22 03:47:09;;;;;;;;;;;;;;;;;;5130702;28;19920;-78
2022/03/22 03:49:53;;;;;;;;;;;;;;;;;;5131577;28;19915;-78
2022/03/22 03:52:20;;;;;;;;;;;;;;;;;;5128708;28;20383;-78
2022/03/22 03:54:46;;;;;;;;;;;;;;;;;;5130576;28;19920;-78
2022/03/22 03:57:11;;;;;;;;;;;;;;;;;;5129638;28;19922;-78
2022/03/22 03:59:37;;;;;;;;;;;;;;;;;;5130573;28;19976;-79
2022/03/22 04:02:03;;;;;;;;;;;;;;;;;;5129944;28;19937;-78
2022/03/22 04:04:28;;;;;;;;;;;;;;;;;;5129570;28;19919;-78
2022/03/22 04:06:54;;;;;;;;;;;;;;;;;;5129543;28;19916;-78
2022/03/22 04:09:19;;;;;;;;;;;;;;;;;;5129079;27;19955;-78
2022/03/22 04:11:45;;;;;;;;;;;;;;;;;;5130167;28;19915;-79
2022/03/22 04:14:10;;;;;;;;;;;;;;;;;;5129858;28;19947;-79
2022/03/22 04:16:39;;;;;;;;;;;;;;;;;;5130184;28;19926;-79
2022/03/22 04:19:08;;;;;;;;;;;;;;;;;;5128844;28;20377;-79
2022/03/22 04:21:37;;;;;;;;;;;;;;;;;;5128443;28;19984;-79
2022/03/22 04:24:05;;;;;;;;;;;;;;;;;;5129361;28;19955;-79
2022/03/22 04:26:31;;;;;;;;;;;;;;;;;;5130213;28;19920;-78
2022/03/22 04:34:35;;;;;;;;;;;;;;;;;;5125746;28;20294;-79
2022/03/22 04:37:01;;;;;;;;;;;;;;;;;;5128914;28;19915;-79
2022/03/22 04:39:27;;;;;;;;;;;;;;;;;;5133828;28;19931;-79
2022/03/22 04:41:53;;;;;;;;;;;;;;;;;;5136879;28;20018;-79
2022/03/22 04:44:18;;;;;;;;;;;;;;;;;;5134223;28;19920;-80
2022/03/22 04:46:44;;;;;;;;;;;;;;;;;;5133793;28;19916;-79
2022/03/22 04:49:11;;;;;;;;;;;;;;;;;;5133974;28;19916;-79
2022/03/22 04:57:09;;;;;;;;;;;;;;;;;;5117048;28;19923;-78
2022/03/22 04:59:34;;;;;;;;;;;;;;;;;;5109393;28;19916;-78
2022/03/22 05:02:00;;;;;;;;;;;;;;;;;;5109374;28;19917;-78
2022/03/22 05:04:25;;;;;;;;;;;;;;;;;;5108670;28;20434;-78
2022/03/22 05:06:51;;;;;;;;;;;;;;;;;;5108543;28;19916;-79
2022/03/22 05:09:17;;;;;;;;;;;;;;;;;;5096696;28;20262;-78
2022/03/22 05:11:43;;;;;;;;;;;;;;;;;;5097400;28;19923;-78
2022/03/22 05:14:09;;;;;;;;;;;;;;;;;;5116093;28;19915;-78
2022/03/22 05:16:35;;;;;;;;;;;;;;;;;;5116286;28;19922;-79
2022/03/22 05:19:01;;;;;;;;;;;;;;;;;;5114160;28;19915;-79
2022/03/22 05:21:26;;;;;;;;;;;;;;;;;;5116002;28;20405;-78
2022/03/22 05:23:52;;;;;;;;;;;;;;;;;;5114923;28;20257;-78
2022/03/22 05:26:17;;;;;;;;;;;;;;;;;;5116322;28;19916;-78
2022/03/22 05:28:44;;;;;;;;;;;;;;;;;;5116946;28;19922;-78
2022/03/22 05:31:10;;;;;;;;;;;;;;;;;;5115746;28;19915;-79
2022/03/22 05:33:36;;;;;;;;;;;;;;;;;;5129217;28;19990;-78
2022/03/22 05:36:02;;;;;;;;;;;;;;;;;;5129592;28;19986;-79
2022/03/22 05:38:28;;;;;;;;;;;;;;;;;;5128997;28;19920;-78
2022/03/22 05:40:54;;;;;;;;;;;;;;;;;;5125983;28;19938;-79
2022/03/22 05:43:19;;;;;;;;;;;;;;;;;;5123667;28;19968;-76
2022/03/22 05:45:46;;;;;;;;;;;;;;;;;;5119167;28;19968;-79
2022/03/22 05:48:11;;;;;;;;;;;;;;;;;;5120354;28;19916;-78
2022/03/22 05:50:37;;;;;;;;;;;;;;;;;;5117749;28;20015;-79
2022/03/22 05:53:02;;;;;;;;;;;;;;;;;;5120616;28;19990;-80
2022/03/22 05:55:28;;;;;;;;;;;;;;;;;;5124889;28;19923;-79
2022/03/22 05:57:53;;;;;;;;;;;;;;;;;;5123031;28;19920;-82
2022/03/22 06:00:18;;;;;;;;;;;;;;;;;;5118623;28;20370;-78
2022/03/22 06:02:43;;;;;;;;;;;;;;;;;;5122764;28;20293;-78
2022/03/22 06:05:11;;;;;;;;;;;;;;;;;;5122321;28;20006;-78
2022/03/22 06:07:36;;;;;;;;;;;;;;;;;;5113776;28;19923;-79
2022/03/22 06:10:02;;;;;;;;;;;;;;;;;;5126142;28;19979;-80
2022/03/22 06:12:33;;;;;;;;;;;;;;;;;;5121263;28;19916;-79
2022/03/22 06:15:14;;;;;;;;;;;;;;;;;;5111453;28;19916;-79
2022/03/22 06:17:40;;;;;;;;;;;;;;;;;;5107140;28;19983;-79
2022/03/22 06:20:06;;;;;;;;;;;;;;;;;;5107738;28;20432;-78
2022/03/22 06:22:31;;;;;;;;;;;;;;;;;;5107292;28;19945;-78
2022/03/22 06:24:56;;;;;;;;;;;;;;;;;;5108891;28;19923;-77
2022/03/22 06:27:22;;;;;;;;;;;;;;;;;;5119867;28;19920;-76
2022/03/22 06:29:47;;;;;;;;;;;;;;;;;;5117955;28;19916;-78
2022/03/22 06:32:12;;;;;;;;;;;;;;;;;;5118709;27;20022;-76
2022/03/22 06:34:37;;;;;;;;;;;;;;;;;;5117290;28;19968;-78
2022/03/22 06:37:03;;;;;;;;;;;;;;;;;;5117630;28;20003;-76
2022/03/22 06:39:29;;;;;;;;;;;;;;;;;;5115922;28;20392;-76
2022/03/22 06:41:54;;;;;;;;;;;;;;;;;;5118164;28;19916;-77
2022/03/22 06:44:19;;;;;;;;;;;;;;;;;;5124939;28;19915;-80
2022/03/22 06:46:45;;;;;;;;;;;;;;;;;;5135070;27;20131;-78
2022/03/22 06:49:10;;;;;;;;;;;;;;;;;;5142278;27;20384;-78
2022/03/22 06:51:35;;;;;;;;;;;;;;;;;;5138701;27;19964;-77
2022/03/22 06:54:01;;;;;;;;;;;;;;;;;;5138828;27;19919;-78
2022/03/22 06:56:26;;;;;;;;;;;;;;;;;;5140395;27;19923;-78
2022/03/22 06:58:52;;;;;;;;;;;;;;;;;;5139583;27;19919;-80
2022/03/22 07:01:17;;;;;;;;;;;;;;;;;;5139698;27;19915;-76
2022/03/22 07:03:42;;;;;;;;;;;;;;;;;;5137030;27;19919;-77
2022/03/22 07:06:07;;;;;;;;;;;;;;;;;;5135164;27;19915;-74
2022/03/22 07:08:33;;;;;;;;;;;;;;;;;;5116288;27;19955;-76
2022/03/22 07:13:42;;;;;;;;;;;;;;;;;;5134782;27;19919;-76
2022/03/22 07:16:08;;;;;;;;;;;;;;;;;;5127918;27;19916;-77
2022/03/22 07:18:33;;;;;;;;;;;;;;;;;;5114410;28;20358;-77
2022/03/22 07:21:04;;;;;;;;;;;;;;;;;;5114206;28;19912;-77
2022/03/22 07:23:29;;;;;;;;;;;;;;;;;;5116272;28;19935;-78
2022/03/22 07:25:54;;;;;;;;;;;;;;;;;;5116307;28;19986;-77
2022/03/22 07:28:20;;;;;;;;;;;;;;;;;;5116213;28;19951;-77
2022/03/22 07:30:45;;;;;;;;;;;;;;;;;;5114632;28;19977;-77
2022/03/22 07:33:11;;;;;;;;;;;;;;;;;;5114194;28;20437;-77
2022/03/22 07:35:36;;;;;;;;;;;;;;;;;;5114502;28;19920;-77
2022/03/22 07:38:02;;;;;;;;;;;;;;;;;;5115066;28;19955;-78
2022/03/22 07:40:28;;;;;;;;;;;;;;;;;;5115856;28;19923;-78
2022/03/22 07:42:53;;;;;;;;;;;;;;;;;;5115558;28;20314;-77
2022/03/22 07:45:19;;;;;;;;;;;;;;;;;;5121318;28;19923;-79
2022/03/22 07:47:45;;;;;;;;;;;;;;;;;;5125037;28;19916;-79
2022/03/22 07:53:01;;;;;;;;;;;;;;;;;;5129171;28;19923;-78
2022/03/22 07:55:31;;;;;;;;;;;;;;;;;;5123769;28;19916;-76
2022/03/22 07:57:59;;;;;;;;;;;;;;;;;;5124788;27;20400;-76
2022/03/22 08:00:25;;;;;;;;;;;;;;;;;;5123058;28;19923;-77
2022/03/22 08:02:54;;;;;;;;;;;;;;;;;;5125625;28;19951;-77
2022/03/22 08:05:19;;;;;;;;;;;;;;;;;;5127595;28;19926;-78
2022/03/22 08:07:45;;;;;;;;;;;;;;;;;;5129957;28;19915;-79
2022/03/22 08:10:10;;;;;;;;;;;;;;;;;;5117588;27;20018;-77
2022/03/22 08:12:36;;;;;;;;;;;;;;;;;;5114905;28;19920;-76
2022/03/22 08:15:02;;;;;;;;;;;;;;;;;;5114714;28;19916;-75
2022/03/22 08:17:28;;;;;;;;;;;;;;;;;;5115040;28;20547;-76
2022/03/22 08:19:53;;;;;;;;;;;;;;;;;;5115547;28;19998;-77
2022/03/22 08:22:18;;;;;;;;;;;;;;;;;;5114838;28;19916;-77
2022/03/22 08:24:44;;;;;;;;;;;;;;;;;;5115271;28;19916;-77
2022/03/22 08:27:09;;;;;;;;;;;;;;;;;;5115035;28;19984;-77
2022/03/22 08:29:35;;;;;;;;;;;;;;;;;;5113927;28;19923;-76
2022/03/22 08:32:00;;;;;;;;;;;;;;;;;;5115000;28;20330;-77
2022/03/22 08:34:26;;;;;;;;;;;;;;;;;;5114708;28;19977;-77
2022/03/22 08:36:51;;;;;;;;;;;;;;;;;;5113622;28;20049;-76
2022/03/22 08:39:17;;;;;;;;;;;;;;;;;;5114663;28;19972;-75
2022/03/22 08:41:42;;;;;;;;;;;;;;;;;;5114701;28;19926;-75
2022/03/22 08:44:07;;;;;;;;;;;;;;;;;;5111680;28;19916;-77
2022/03/22 08:46:33;;;;;;;;;;;;;;;;;;5096249;28;19915;-77
2022/03/22 08:48:58;;;;;;;;;;;;;;;;;;5096310;28;20381;-76
2022/03/22 08:51:24;;;;;;;;;;;;;;;;;;5114594;28;19915;-76
2022/03/22 08:53:50;;;;;;;;;;;;;;;;;;5114375;28;19938;-76
2022/03/22 08:56:15;;;;;;;;;;;;;;;;;;5114480;28;19916;-75
2022/03/22 08:58:41;;;;;;;;;;;;;;;;;;5114548;28;19927;-76
2022/03/22 09:01:07;;;;;;;;;;;;;;;;;;5114342;28;19919;-76
2022/03/22 09:03:35;;;;;;;;;;;;;;;;;;5113077;28;19916;-76
2022/03/22 09:06:10;;;;;;;;;;;;;;;;;;5114445;28;19939;-76
2022/03/22 09:08:36;;;;;;;;;;;;;;;;;;5114158;28;19923;-76
2022/03/22 09:11:02;;;;;;;;;;;;;;;;;;5115440;28;19916;-77
2022/03/22 09:13:30;;;;;;;;;;;;;;;;;;5115915;28;19916;-76
2022/03/22 09:15:56;;;;;;;;;;;;;;;;;;5113660;28;19915;-76
2022/03/22 09:18:22;;;;;;;;;;;;;;;;;;5118151;28;20258;-78
2022/03/22 09:20:47;;;;;;;;;;;;;;;;;;5117229;28;19923;-77
2022/03/22 09:23:13;;;;;;;;;;;;;;;;;;5114149;28;20451;-77
2022/03/22 09:25:40;;;;;;;;;;;;;;;;;;5096517;28;19912;-76
2022/03/22 09:28:06;;;;;;;;;;;;;;;;;;5112966;28;19916;-76
2022/03/22 09:30:32;;;;;;;;;;;;;;;;;;5114104;28;19947;-77
2022/03/22 09:32:57;;;;;;;;;;;;;;;;;;5113974;28;20400;-76
2022/03/22 09:35:23;;;;;;;;;;;;;;;;;;5114056;28;19927;-76
2022/03/22 09:37:49;;;;;;;;;;;;;;;;;;5111729;28;19956;-76
2022/03/22 09:40:16;;;;;;;;;;;;;;;;;;5114091;28;19968;-76
2022/03/22 09:42:45;;;;;;;;;;;;;;;;;;5114021;28;20002;-76
2022/03/22 09:45:11;;;;;;;;;;;;;;;;;;5113856;28;19923;-76
2022/03/22 09:47:37;;;;;;;;;;;;;;;;;;5114060;28;19960;-76
2022/03/22 09:50:06;;;;;;;;;;;;;;;;;;5112659;28;19955;-77
2022/03/22 09:52:31;;;;;;;;;;;;;;;;;;5114820;28;20312;-76
2022/03/22 09:54:56;;;;;;;;;;;;;;;;;;5113689;28;19916;-75
2022/03/22 09:57:21;;;;;;;;;;;;;;;;;;5116910;28;19916;-76
2022/03/22 09:59:47;;;;;;;;;;;;;;;;;;5117733;28;20006;-76
2022/03/22 10:02:12;;;;;;;;;;;;;;;;;;5118198;28;20042;-76
2022/03/22 10:04:39;;;;;;;;;;;;;;;;;;5118085;28;19916;-76
2022/03/22 10:07:06;;;;;;;;;;;;;;;;;;5116330;28;20543;-76
2022/03/22 10:09:39;;;;;;;;;;;;;;;;;;5117678;28;20373;-76
2022/03/22 10:12:07;;;;;;;;;;;;;;;;;;5116585;28;19963;-76
2022/03/22 10:14:40;;;;;;;;;;;;;;;;;;5118297;28;19915;-76
2022/03/22 10:17:13;;;;;;;;;;;;;;;;;;5116498;28;19926;-75
2022/03/22 10:19:45;;;;;;;;;;;;;;;;;;5121717;28;19919;-76
2022/03/22 10:22:11;;;;;;;;;;;;;;;;;;5117355;28;19916;-76
2022/03/22 10:24:44;;;;;;;;;;;;;;;;;;5118298;28;19916;-78
2022/03/22 10:27:29;;;;;;;;;;;;;;;;;;5120594;28;20030;-78
2022/03/22 10:29:55;;;;;;;;;;;;;;;;;;5120623;28;19922;-77
2022/03/22 10:32:32;;;;;;;;;;;;;;;;;;5119229;28;19966;-77
2022/03/22 10:35:08;;;;;;;;;;;;;;;;;;5118262;27;19916;-76
2022/03/22 10:37:33;;;;;;;;;;;;;;;;;;5118975;28;19923;-75
2022/03/22 10:39:59;;;;;;;;;;;;;;;;;;5117033;28;20384;-76
2022/03/22 10:42:24;;;;;;;;;;;;;;;;;;5116984;27;20308;-73
2022/03/22 10:44:50;;;;;;;;;;;;;;;;;;5115600;28;19927;-74
2022/03/22 10:47:24;;;;;;;;;;;;;;;;;;5116828;28;19968;-75
2022/03/22 10:49:59;;;;;;;;;;;;;;;;;;5116459;28;19916;-75
2022/03/22 10:52:24;;;;;;;;;;;;;;;;;;5115865;27;20369;-75
2022/03/22 10:54:49;;;;;;;;;;;;;;;;;;5116436;28;19923;-75
2022/03/22 10:57:17;;;;;;;;;;;;;;;;;;5115351;28;20005;-75
2022/03/22 10:59:50;;;;;;;;;;;;;;;;;;5116078;28;20018;-72
2022/03/22 11:02:18;;;;;;;;;;;;;;;;;;5115594;28;19919;-75
2022/03/22 11:04:43;;;;;;;;;;;;;;;;;;5116314;28;19915;-73
2022/03/22 11:07:09;;;;;;;;;;;;;;;;;;5115444;28;19923;-75
2022/03/22 11:09:35;;;;;;;;;;;;;;;;;;5116255;28;19923;-74
2022/03/22 11:12:01;;;;;;;;;;;;;;;;;;5115729;28;20277;-75
2022/03/22 11:14:27;;;;;;;;;;;;;;;;;;5116233;28;19916;-75
2022/03/22 11:16:53;;;;;;;;;;;;;;;;;;5116417;28;19916;-75
2022/03/22 11:19:18;;;;;;;;;;;;;;;;;;5115867;28;20019;-76
2022/03/22 11:21:46;;;;;;;;;;;;;;;;;;5116012;28;19922;-75
2022/03/22 11:24:12;;;;;;;;;;;;;;;;;;5115172;28;19916;-74
2022/03/22 11:26:42;;;;;;;;;;;;;;;;;;5113942;28;20306;-75
2022/03/22 11:29:09;;;;;;;;;;;;;;;;;;5116312;28;19916;-75
2022/03/22 11:31:35;;;;;;;;;;;;;;;;;;5115393;28;20281;-75
2022/03/22 11:34:09;;;;;;;;;;;;;;;;;;5115821;28;19927;-74
2022/03/22 11:36:41;;;;;;;;;;;;;;;;;;5115786;27;19916;-74
2022/03/22 11:39:07;;;;;;;;;;;;;;;;;;5115637;28;19931;-73
2022/03/22 11:44:17;;;;;;;;;;;;;;;;;;5114700;28;19915;-75
2022/03/22 11:46:43;;;;;;;;;;;;;;;;;;5115693;28;19923;-75
2022/03/22 11:49:21;;;;;;;;;;;;;;;;;;5115720;28;19922;-75
2022/03/22 11:51:48;;;;;;;;;;;;;;;;;;5114818;28;19915;-74
2022/03/22 11:54:13;;;;;;;;;;;;;;;;;;5114482;28;20318;-73
2022/03/22 11:56:52;;;;;;;;;;;;;;;;;;5115603;28;19916;-74
2022/03/22 11:59:18;;;;;;;;;;;;;;;;;;5113617;28;20395;-73
2022/03/22 12:01:57;;;;;;;;;;;;;;;;;;5113975;28;19962;-73
2022/03/22 12:04:32;;;;;;;;;;;;;;;;;;5115306;28;20418;-74
2022/03/22 12:06:57;;;;;;;;;;;;;;;;;;5115418;28;19941;-74
2022/03/22 12:09:25;;;;;;;;;;;;;;;;;;5115569;28;19916;-74
2022/03/22 12:11:51;;;;;;;;;;;;;;;;;;5113857;28;19916;-73
2022/03/22 12:14:30;;;;;;;;;;;;;;;;;;5114348;28;19969;-73
2022/03/22 12:16:56;;;;;;;;;;;;;;;;;;5115347;28;19916;-73
2022/03/22 12:19:28;;;;;;;;;;;;;;;;;;5114939;28;19966;-74
2022/03/22 12:21:54;;;;;;;;;;;;;;;;;;5115273;28;20014;-74
2022/03/22 12:24:21;;;;;;;;;;;;;;;;;;5114791;28;19923;-73
2022/03/22 12:26:46;;;;;;;;;;;;;;;;;;5114983;28;19916;-74
2022/03/22 12:29:12;;;;;;;;;;;;;;;;;;5115094;27;19915;-74
2022/03/22 12:31:45;;;;;;;;;;;;;;;;;;5113813;28;20273;-74
2022/03/22 12:34:11;;;;;;;;;;;;;;;;;;5114657;28;19920;-74
2022/03/22 12:36:36;;;;;;;;;;;;;;;;;;5113006;28;20373;-73
2022/03/22 12:39:02;;;;;;;;;;;;;;;;;;5114609;28;19984;-74
2022/03/22 12:41:27;;;;;;;;;;;;;;;;;;5114535;28;19915;-73
2022/03/22 12:43:52;;;;;;;;;;;;;;;;;;5114853;28;20005;-74
2022/03/22 12:46:19;;;;;;;;;;;;;;;;;;5114830;28;20323;-74
2022/03/22 12:48:44;;;;;;;;;;;;;;;;;;5114737;28;19916;-74
2022/03/22 12:51:10;;;;;;;;;;;;;;;;;;5114770;28;20014;-73
2022/03/22 12:53:37;;;;;;;;;;;;;;;;;;5113413;27;19920;-74
2022/03/22 12:56:12;;;;;;;;;;;;;;;;;;5114478;28;19911;-73
2022/03/22 12:58:38;;;;;;;;;;;;;;;;;;5113992;28;19971;-74
2022/03/22 13:01:03;;;;;;;;;;;;;;;;;;5114790;28;19923;-74
2022/03/22 13:03:29;;;;;;;;;;;;;;;;;;5114271;28;19959;-74
2022/03/22 13:05:56;;;;;;;;;;;;;;;;;;5113510;28;19916;-74
2022/03/22 13:08:23;;;;;;;;;;;;;;;;;;5112885;28;19920;-74
2022/03/22 13:16:22;;;;;;;;;;;;;;;;;;5112947;28;19922;-73
2022/03/22 13:18:48;;;;;;;;;;;;;;;;;;5113090;28;19924;-74
2022/03/22 13:21:14;;;;;;;;;;;;;;;;;;5113150;28;19922;-74
2022/03/22 13:23:39;;;;;;;;;;;;;;;;;;5114060;28;20006;-74
2022/03/22 13:26:13;;;;;;;;;;;;;;;;;;5114296;27;20369;-76
2022/03/22 13:28:39;;;;;;;;;;;;;;;;;;5114179;28;19916;-74
2022/03/22 13:31:04;;;;;;;;;;;;;;;;;;5115617;28;20422;-74
2022/03/22 13:33:38;;;;;;;;;;;;;;;;;;5118084;28;19930;-76
2022/03/22 13:36:04;;;;;;;;;;;;;;;;;;5118454;28;19916;-75
2022/03/22 13:38:30;;;;;;;;;;;;;;;;;;5118076;28;19927;-74
2022/03/22 13:41:03;;;;;;;;;;;;;;;;;;5117512;27;19922;-75
2022/03/22 13:43:28;;;;;;;;;;;;;;;;;;5117916;28;19916;-74
2022/03/22 13:45:55;;;;;;;;;;;;;;;;;;5117555;28;19918;-74
2022/03/22 13:48:21;;;;;;;;;;;;;;;;;;5117855;28;19962;-74
2022/03/22 13:50:48;;;;;;;;;;;;;;;;;;5117698;28;19959;-75
2022/03/22 13:53:13;;;;;;;;;;;;;;;;;;5117847;27;19916;-75
2022/03/22 13:55:40;;;;;;;;;;;;;;;;;;5118043;28;19912;-76
2022/03/22 13:58:11;;;;;;;;;;;;;;;;;;5117430;28;19978;-73
2022/03/22 14:00:37;;;;;;;;;;;;;;;;;;5099513;28;19924;-73
2022/03/22 14:03:03;;;;;;;;;;;;;;;;;;5117425;27;19922;-73
2022/03/22 14:05:28;;;;;;;;;;;;;;;;;;5116478;28;19916;-72
2022/03/22 14:07:54;;;;;;;;;;;;;;;;;;5116337;28;19916;-73
2022/03/22 14:10:19;;;;;;;;;;;;;;;;;;5116871;28;19938;-72
2022/03/22 14:12:45;;;;;;;;;;;;;;;;;;5117661;28;19916;-76
2022/03/22 14:15:12;;;;;;;;;;;;;;;;;;5117537;28;20013;-76
2022/03/22 14:17:37;;;;;;;;;;;;;;;;;;5117399;28;19923;-75
2022/03/22 14:20:05;;;;;;;;;;;;;;;;;;5116890;28;19916;-75
2022/03/22 14:22:31;;;;;;;;;;;;;;;;;;5117713;28;19923;-75
2022/03/22 14:24:56;;;;;;;;;;;;;;;;;;5116660;28;19919;-76
2022/03/22 14:27:22;;;;;;;;;;;;;;;;;;5116027;28;19920;-76
2022/03/22 14:29:47;;;;;;;;;;;;;;;;;;5117314;28;19938;-75
2022/03/22 14:32:12;;;;;;;;;;;;;;;;;;5117322;28;19916;-76
2022/03/22 14:37:21;;;;;;;;;;;;;;;;;;5116759;28;20321;-75
2022/03/22 14:39:49;;;;;;;;;;;;;;;;;;5116530;28;22241;-75
2022/03/22 14:42:14;;;;;;;;;;;;;;;;;;5114163;28;19916;-76
2022/03/22 14:44:42;;;;;;;;;;;;;;;;;;5116114;28;19915;-76
2022/03/22 14:47:10;;;;;;;;;;;;;;;;;;5117068;28;19915;-76
2022/03/22 14:49:36;;;;;;;;;;;;;;;;;;5117229;27;19958;-76
2022/03/22 14:54:45;;;;;;;;;;;;;;;;;;5116735;28;19916;-76
2022/03/22 14:58:47;;;;;;;;;;;;;;;;;;5115799;28;19915;-76
2022/03/22 15:00:10;;;;;;;;;;;;;;;;;;5116330;28;20011;-76
2022/03/22 15:02:40;;;;;;;;;;;;;;;;;;5116676;28;19920;-76
2022/03/22 15:05:31;;;;;;;;;;;;;;;;;;5116376;28;19915;-77
2022/03/22 15:07:54;;;;;;;;;;;;;;;;;;5116488;28;19915;-76
2022/03/22 15:10:20;;;;;;;;;;;;;;;;;;5116687;28;20011;-76
2022/03/22 15:12:46;;;;;;;;;;;;;;;;;;5114555;28;20328;-76
2022/03/22 15:15:11;;;;;;;;;;;;;;;;;;5116443;28;19923;-76
2022/03/22 15:17:36;;;;;;;;;;;;;;;;;;5116251;28;19915;-76
2022/03/22 15:20:02;;;;;;;;;;;;;;;;;;5116503;28;20049;-77
2022/03/22 15:22:28;;;;;;;;;;;;;;;;;;5115430;28;19968;-77
2022/03/22 15:24:53;;;;;;;;;;;;;;;;;;5116219;28;19912;-76
2022/03/22 15:27:19;;;;;;;;;;;;;;;;;;5116322;28;20261;-76
2022/03/22 15:29:44;;;;;;;;;;;;;;;;;;5116077;28;19916;-76
2022/03/22 15:32:10;;;;;;;;;;;;;;;;;;5115986;28;20004;-76
2022/03/22 15:34:35;;;;;;;;;;;;;;;;;;5116138;28;20288;-76
2022/03/22 15:37:02;;;;;;;;;;;;;;;;;;5116055;28;20376;-76
2022/03/22 15:39:27;;;;;;;;;;;;;;;;;;5115865;28;19919;-76
2022/03/22 15:41:53;;;;;;;;;;;;;;;;;;5115147;28;20022;-76
2022/03/22 15:44:18;;;;;;;;;;;;;;;;;;5115851;28;19960;-76
2022/03/22 15:46:44;;;;;;;;;;;;;;;;;;5115888;28;19916;-76
2022/03/22 15:49:09;;;;;;;;;;;;;;;;;;5115724;28;19915;-76
2022/03/22 15:51:34;;;;;;;;;;;;;;;;;;5115842;28;19916;-77
2022/03/22 15:54:00;;;;;;;;;;;;;;;;;;5115219;28;19920;-76
2022/03/22 15:56:25;;;;;;;;;;;;;;;;;;5115001;28;19916;-76
2022/03/22 15:58:51;;;;;;;;;;;;;;;;;;5115105;28;20022;-76
2022/03/22 16:01:16;;;;;;;;;;;;;;;;;;5114111;28;19924;-76
2022/03/22 16:03:41;;;;;;;;;;;;;;;;;;5115242;28;19916;-76
2022/03/22 16:06:07;;;;;;;;;;;;;;;;;;5115628;28;19982;-76
2022/03/22 16:08:34;;;;;;;;;;;;;;;;;;5115428;28;19916;-76
2022/03/22 16:11:00;;;;;;;;;;;;;;;;;;5114302;28;19916;-76
2022/03/22 16:13:25;;;;;;;;;;;;;;;;;;5114471;28;19969;-76
2022/03/22 16:15:51;;;;;;;;;;;;;;;;;;5114779;28;19915;-76
2022/03/22 16:18:16;;;;;;;;;;;;;;;;;;5113869;28;19923;-76
2022/03/22 16:20:42;;;;;;;;;;;;;;;;;;5113041;27;19916;-76
2022/03/22 16:23:07;;;;;;;;;;;;;;;;;;5115039;28;19924;-76
2022/03/22 16:25:32;;;;;;;;;;;;;;;;;;5113386;28;19969;-76
2022/03/22 16:28:00;;;;;;;;;;;;;;;;;;5114659;28;19915;-76
2022/03/22 16:30:25;;;;;;;;;;;;;;;;;;5114788;28;20011;-76
2022/03/22 16:38:20;;;;;;;;;;;;;;;;;;5113441;28;19919;-76
2022/03/22 16:40:46;;;;;;;;;;;;;;;;;;5114688;28;19915;-76
2022/03/22 16:43:13;;;;;;;;;;;;;;;;;;5114669;28;19915;-76
2022/03/22 16:45:38;;;;;;;;;;;;;;;;;;5113966;28;20266;-76
2022/03/22 16:48:13;;;;;;;;;;;;;;;;;;5114850;28;19942;-76
2022/03/22 16:50:39;;;;;;;;;;;;;;;;;;5113630;28;19916;-76
2022/03/22 16:53:04;;;;;;;;;;;;;;;;;;5113424;28;19964;-76
2022/03/22 16:55:30;;;;;;;;;;;;;;;;;;5114596;28;19919;-76
2022/03/22 16:57:55;;;;;;;;;;;;;;;;;;5113498;28;20282;-76
2022/03/22 17:00:21;;;;;;;;;;;;;;;;;;5114446;28;19923;-76
2022/03/22 17:02:46;;;;;;;;;;;;;;;;;;5113930;27;20297;-76
2022/03/22 17:05:11;;;;;;;;;;;;;;;;;;5113674;28;19916;-76
2022/03/22 17:07:36;;;;;;;;;;;;;;;;;;5114348;28;19962;-76
2022/03/22 17:10:03;;;;;;;;;;;;;;;;;;5113150;28;20010;-76
2022/03/22 17:12:28;;;;;;;;;;;;;;;;;;5113481;28;19916;-77
2022/03/22 17:14:54;;;;;;;;;;;;;;;;;;5114463;28;19984;-77
2022/03/22 17:17:19;;;;;;;;;;;;;;;;;;5113476;28;19959;-76
2022/03/22 17:19:46;;;;;;;;;;;;;;;;;;5114332;28;19920;-76
2022/03/22 17:22:12;;;;;;;;;;;;;;;;;;5114159;28;20349;-76
2022/03/22 17:24:37;;;;;;;;;;;;;;;;;;5111656;28;19926;-76
2022/03/22 17:27:03;;;;;;;;;;;;;;;;;;5113796;28;19919;-76